createdAt,value
2018-03-22T00:00:31.212Z,36.40
2018-03-22T00:02:24.094Z,32.60
2018-03-22T00:03:24.070Z,30.00
2018-03-22T00:05:16.947Z,31.50
2018-03-22T00:06:16.919Z,34.40
2018-03-22T00:08:09.794Z,32.90
2018-03-22T00:09:09.764Z,33.70
2018-03-22T00:11:02.661Z,30.40
2018-03-22T00:12:02.611Z,35.70
2018-03-22T00:13:55.486Z,36.40
2018-03-22T00:14:55.458Z,33.60
2018-03-22T00:16:48.341Z,29.50
2018-03-22T00:17:48.305Z,30.50
2018-03-22T00:19:41.190Z,35.50
2018-03-22T00:20:41.153Z,30.30
2018-03-22T00:22:34.048Z,32.50
2018-03-22T00:23:34.001Z,33.10
2018-03-22T00:25:26.891Z,31.60
2018-03-22T00:26:26.850Z,29.80
2018-03-22T00:28:19.743Z,33.90
2018-03-22T00:29:19.709Z,29.90
2018-03-22T00:31:12.599Z,36.70
2018-03-22T00:32:12.557Z,30.60
2018-03-22T00:34:05.942Z,31.40
2018-03-22T00:35:05.899Z,33.70
2018-03-22T00:36:58.788Z,33.20
2018-03-22T00:37:58.755Z,30.60
2018-03-22T00:39:51.635Z,30.90
2018-03-22T00:40:51.600Z,33.10
2018-03-22T00:42:44.469Z,32.70
2018-03-22T00:43:44.440Z,32.30
2018-03-22T00:45:37.323Z,33.10
2018-03-22T00:46:37.290Z,36.50
2018-03-22T00:48:30.188Z,34.20
2018-03-22T00:49:30.150Z,34.40
2018-03-22T00:51:23.031Z,35.80
2018-03-22T00:52:22.995Z,31.70
2018-03-22T00:54:16.360Z,35.80
2018-03-22T00:55:16.344Z,35.70
2018-03-22T00:57:09.216Z,34.10
2018-03-22T00:58:09.184Z,36.40
2018-03-22T01:00:02.072Z,39.00
2018-03-22T01:01:02.033Z,35.90
2018-03-22T01:02:54.913Z,38.40
2018-03-22T01:03:54.883Z,34.60
2018-03-22T01:05:47.749Z,38.20
2018-03-22T01:06:47.725Z,35.10
2018-03-22T01:08:41.233Z,37.80
2018-03-22T01:09:40.579Z,34.60
2018-03-22T01:11:33.481Z,37.40
2018-03-22T01:12:33.428Z,35.60
2018-03-22T01:14:26.305Z,41.30
2018-03-22T01:15:26.275Z,42.00
2018-03-22T01:17:19.157Z,40.20
2018-03-22T01:18:19.128Z,39.70
2018-03-22T01:20:12.061Z,40.20
2018-03-22T01:21:11.979Z,38.30
2018-03-22T01:23:04.908Z,41.60
2018-03-22T01:24:04.839Z,41.40
2018-03-22T01:25:57.791Z,36.70
2018-03-22T01:26:57.689Z,37.50
2018-03-22T01:28:50.575Z,37.60
2018-03-22T01:29:50.540Z,39.20
2018-03-22T01:31:43.504Z,38.20
2018-03-22T01:32:43.400Z,35.20
2018-03-22T01:34:36.379Z,38.50
2018-03-22T01:35:36.257Z,35.30
2018-03-22T01:37:29.140Z,34.50
2018-03-22T01:38:29.098Z,33.60
2018-03-22T01:40:22.061Z,38.80
2018-03-22T01:41:21.944Z,35.20
2018-03-22T01:43:14.819Z,34.30
2018-03-22T01:44:14.796Z,35.30
2018-03-22T01:46:07.667Z,36.20
2018-03-22T01:47:07.639Z,37.10
2018-03-22T01:49:00.518Z,34.20
2018-03-22T01:50:00.490Z,35.80
2018-03-22T01:51:53.444Z,38.80
2018-03-22T01:52:53.342Z,36.10
2018-03-22T01:54:46.211Z,35.10
2018-03-22T01:55:46.191Z,36.20
2018-03-22T01:57:39.073Z,35.30
2018-03-22T01:58:39.048Z,32.50
2018-03-22T02:00:32.418Z,31.10
2018-03-22T02:01:32.387Z,33.80
2018-03-22T02:03:25.275Z,33.20
2018-03-22T02:04:25.227Z,34.00
2018-03-22T02:06:18.118Z,31.40
2018-03-22T02:07:18.074Z,35.40
2018-03-22T02:09:11.015Z,39.10
2018-03-22T02:10:10.939Z,36.20
2018-03-22T02:12:03.807Z,38.20
2018-03-22T02:13:03.783Z,39.10
2018-03-22T02:14:57.158Z,37.50
2018-03-22T02:15:57.125Z,37.10
2018-03-22T02:17:50.029Z,35.10
2018-03-22T02:18:49.999Z,36.10
2018-03-22T02:20:42.866Z,34.80
2018-03-22T02:21:42.825Z,39.20
2018-03-22T02:23:35.727Z,35.90
2018-03-22T02:24:35.672Z,38.00
2018-03-22T02:26:28.559Z,33.90
2018-03-22T02:27:28.531Z,34.60
2018-03-22T02:29:21.408Z,37.10
2018-03-22T02:30:21.377Z,37.60
2018-03-22T02:32:14.261Z,36.00
2018-03-22T02:33:14.225Z,35.50
2018-03-22T02:35:07.134Z,32.80
2018-03-22T02:36:07.074Z,36.30
2018-03-22T02:37:59.966Z,33.00
2018-03-22T02:38:59.939Z,33.10
2018-03-22T02:40:52.839Z,34.40
2018-03-22T02:41:52.781Z,31.00
2018-03-22T02:43:46.197Z,40.20
2018-03-22T02:44:46.141Z,33.10
2018-03-22T02:46:39.055Z,35.80
2018-03-22T02:47:38.982Z,35.10
2018-03-22T02:49:31.878Z,34.20
2018-03-22T02:50:31.830Z,33.00
2018-03-22T02:52:24.718Z,36.20
2018-03-22T02:53:24.689Z,33.50
2018-03-22T02:55:17.588Z,33.40
2018-03-22T02:56:17.551Z,36.90
2018-03-22T02:58:10.431Z,32.40
2018-03-22T02:59:10.398Z,33.60
2018-03-22T03:01:03.288Z,32.80
2018-03-22T03:02:03.252Z,34.20
2018-03-22T03:03:56.138Z,35.20
2018-03-22T03:04:56.109Z,34.70
2018-03-22T03:06:48.990Z,37.70
2018-03-22T03:07:48.956Z,38.50
2018-03-22T03:09:41.830Z,32.90
2018-03-22T03:10:41.803Z,30.70
2018-03-22T03:12:34.690Z,34.80
2018-03-22T03:13:34.656Z,34.00
2018-03-22T03:15:27.564Z,30.70
2018-03-22T03:16:27.507Z,31.30
2018-03-22T03:18:20.396Z,29.80
2018-03-22T03:19:20.388Z,31.10
2018-03-22T03:21:13.743Z,30.50
2018-03-22T03:22:13.705Z,30.40
2018-03-22T03:24:07.077Z,28.80
2018-03-22T03:25:07.052Z,32.40
2018-03-22T03:26:59.939Z,28.90
2018-03-22T03:27:59.908Z,28.50
2018-03-22T03:29:53.359Z,29.40
2018-03-22T03:30:52.751Z,30.40
2018-03-22T03:32:45.678Z,38.10
2018-03-22T03:33:45.600Z,34.50
2018-03-22T03:35:38.987Z,38.60
2018-03-22T03:36:38.953Z,37.10
2018-03-22T03:38:31.834Z,40.90
2018-03-22T03:39:31.805Z,41.10
2018-03-22T03:41:24.729Z,35.70
2018-03-22T03:42:24.686Z,34.50
2018-03-22T03:44:17.641Z,31.20
2018-03-22T03:45:17.533Z,35.30
2018-03-22T03:47:10.416Z,36.50
2018-03-22T03:48:10.407Z,38.40
2018-03-22T03:50:03.755Z,35.40
2018-03-22T03:51:03.726Z,31.70
2018-03-22T03:52:56.604Z,34.80
2018-03-22T03:53:56.588Z,34.20
2018-03-22T03:55:49.954Z,31.00
2018-03-22T03:56:49.923Z,30.60
2018-03-22T03:58:42.809Z,31.30
2018-03-22T03:59:42.777Z,33.20
2018-03-22T04:01:35.662Z,38.20
2018-03-22T04:02:35.648Z,32.00
2018-03-22T04:04:29.019Z,33.50
2018-03-22T04:05:28.996Z,33.80
2018-03-22T04:07:21.877Z,31.30
2018-03-22T04:08:21.844Z,33.50
2018-03-22T04:10:14.720Z,35.90
2018-03-22T04:11:14.689Z,30.50
2018-03-22T04:13:07.570Z,32.80
2018-03-22T04:14:07.542Z,34.20
2018-03-22T04:16:00.912Z,30.40
2018-03-22T04:17:00.887Z,31.10
2018-03-22T04:18:53.774Z,37.00
2018-03-22T04:19:53.737Z,34.40
2018-03-22T04:21:46.624Z,30.50
2018-03-22T04:22:46.585Z,31.00
2018-03-22T04:24:39.478Z,37.30
2018-03-22T04:25:39.439Z,32.30
2018-03-22T04:27:32.338Z,34.80
2018-03-22T04:28:32.295Z,34.30
2018-03-22T04:30:25.756Z,34.00
2018-03-22T04:31:25.146Z,35.80
2018-03-22T04:33:18.033Z,35.90
2018-03-22T04:34:18.000Z,36.10
2018-03-22T04:36:10.879Z,37.00
2018-03-22T04:37:10.849Z,38.30
2018-03-22T04:39:04.309Z,34.40
2018-03-22T04:40:03.700Z,34.40
2018-03-22T04:41:57.080Z,34.10
2018-03-22T04:42:57.045Z,36.30
2018-03-22T04:44:49.935Z,36.30
2018-03-22T04:45:49.898Z,37.20
2018-03-22T04:47:42.859Z,32.20
2018-03-22T04:48:42.758Z,33.30
2018-03-22T04:50:35.719Z,34.30
2018-03-22T04:51:35.607Z,33.30
2018-03-22T04:53:28.489Z,33.00
2018-03-22T04:54:28.457Z,32.90
2018-03-22T04:56:21.345Z,29.90
2018-03-22T04:57:21.310Z,31.80
2018-03-22T04:59:14.201Z,32.10
2018-03-22T05:00:14.165Z,36.80
2018-03-22T05:02:07.044Z,31.90
2018-03-22T05:03:07.019Z,28.40
2018-03-22T05:04:59.903Z,27.50
2018-03-22T05:05:59.867Z,27.10
2018-03-22T05:07:52.750Z,30.00
2018-03-22T05:08:52.720Z,29.70
2018-03-22T05:10:45.608Z,31.60
2018-03-22T05:11:45.576Z,29.80
2018-03-22T05:13:38.460Z,31.50
2018-03-22T05:14:38.430Z,32.30
2018-03-22T05:16:31.322Z,30.20
2018-03-22T05:17:31.285Z,31.50
2018-03-22T05:19:24.171Z,27.70
2018-03-22T05:20:24.137Z,26.70
2018-03-22T05:22:17.030Z,28.30
2018-03-22T05:23:17.011Z,32.60
2018-03-22T05:25:10.371Z,27.30
2018-03-22T05:26:10.354Z,26.60
2018-03-22T05:28:03.236Z,28.80
2018-03-22T05:29:03.205Z,28.40
2018-03-22T05:30:56.083Z,26.00
2018-03-22T05:31:56.051Z,28.70
2018-03-22T05:33:49.428Z,31.30
2018-03-22T05:34:49.397Z,27.50
2018-03-22T05:36:42.283Z,24.70
2018-03-22T05:37:42.249Z,26.10
2018-03-22T05:39:35.711Z,26.00
2018-03-22T05:40:35.598Z,27.30
2018-03-22T05:42:28.489Z,23.90
2018-03-22T05:43:28.467Z,24.10
2018-03-22T05:45:21.340Z,26.20
2018-03-22T05:46:21.308Z,26.60
2018-03-22T05:48:14.679Z,24.90
2018-03-22T05:49:14.662Z,27.40
2018-03-22T05:51:07.545Z,25.50
2018-03-22T05:52:07.527Z,25.10
2018-03-22T05:54:00.389Z,27.00
2018-03-22T05:55:00.367Z,28.10
2018-03-22T05:56:53.248Z,27.40
2018-03-22T05:57:53.224Z,27.20
2018-03-22T05:59:46.819Z,28.60
2018-03-22T06:00:46.573Z,28.10
2018-03-22T06:02:39.466Z,25.20
2018-03-22T06:03:39.447Z,25.30
2018-03-22T06:05:32.303Z,29.50
2018-03-22T06:06:32.518Z,25.30
2018-03-22T06:08:26.033Z,24.20
2018-03-22T06:09:26.002Z,28.20
2018-03-22T06:11:18.878Z,28.10
2018-03-22T06:12:18.997Z,26.60
2018-03-22T06:14:12.353Z,29.50
2018-03-22T06:15:12.183Z,30.10
2018-03-22T06:17:05.237Z,24.10
2018-03-22T06:18:05.013Z,28.90
2018-03-22T06:19:57.903Z,27.20
2018-03-22T06:20:57.866Z,23.50
2018-03-22T06:22:50.824Z,28.60
2018-03-22T06:23:50.737Z,27.30
2018-03-22T06:25:44.999Z,25.70
2018-03-22T06:26:44.924Z,26.50
2018-03-22T06:28:37.843Z,28.40
2018-03-22T06:29:37.779Z,29.20
2018-03-22T06:31:30.730Z,27.60
2018-03-22T06:32:30.690Z,31.90
2018-03-22T06:34:23.577Z,29.50
2018-03-22T06:35:23.537Z,30.40
2018-03-22T06:37:16.440Z,25.90
2018-03-22T06:38:16.415Z,26.90
2018-03-22T06:40:09.309Z,25.50
2018-03-22T06:41:09.252Z,30.70
2018-03-22T06:43:02.185Z,33.00
2018-03-22T06:44:02.124Z,33.30
2018-03-22T06:45:55.482Z,32.20
2018-03-22T06:46:55.466Z,33.60
2018-03-22T06:48:48.375Z,33.30
2018-03-22T06:49:48.995Z,32.10
2018-03-22T06:51:41.708Z,34.80
2018-03-22T06:52:42.706Z,41.90
2018-03-22T06:54:34.558Z,37.90
2018-03-22T06:55:34.525Z,37.70
2018-03-22T06:57:27.417Z,38.40
2018-03-22T06:58:27.390Z,39.90
2018-03-22T07:00:20.783Z,38.30
2018-03-22T07:01:20.758Z,39.80
2018-03-22T07:03:14.159Z,41.60
2018-03-22T07:04:14.125Z,41.10
2018-03-22T07:06:07.505Z,47.40
2018-03-22T07:07:07.479Z,43.40
2018-03-22T07:09:00.369Z,49.30
2018-03-22T07:10:00.329Z,45.10
2018-03-22T07:11:53.713Z,45.00
2018-03-22T07:12:53.677Z,45.00
2018-03-22T07:14:46.559Z,47.10
2018-03-22T07:15:46.530Z,46.00
2018-03-22T07:17:39.914Z,51.80
2018-03-22T07:18:39.885Z,48.20
2018-03-22T07:20:33.351Z,44.80
2018-03-22T07:21:32.738Z,45.70
2018-03-22T07:23:25.635Z,46.40
2018-03-22T07:24:25.642Z,44.00
2018-03-22T07:26:18.499Z,46.00
2018-03-22T07:27:18.464Z,50.70
2018-03-22T07:29:11.844Z,51.70
2018-03-22T07:30:11.804Z,45.90
2018-03-22T07:32:04.694Z,54.50
2018-03-22T07:33:04.667Z,53.40
2018-03-22T07:34:57.548Z,49.80
2018-03-22T07:35:57.519Z,48.10
2018-03-22T07:37:50.404Z,53.30
2018-03-22T07:38:50.373Z,50.30
2018-03-22T07:40:43.263Z,52.60
2018-03-22T07:41:43.229Z,54.10
2018-03-22T07:43:36.127Z,51.70
2018-03-22T07:44:36.092Z,50.50
2018-03-22T07:46:28.974Z,49.50
2018-03-22T07:47:28.941Z,53.80
2018-03-22T07:49:21.835Z,47.10
2018-03-22T07:50:21.796Z,51.60
2018-03-22T07:52:14.692Z,53.90
2018-03-22T07:53:14.658Z,52.30
2018-03-22T07:55:07.547Z,49.70
2018-03-22T07:56:07.519Z,51.70
2018-03-22T07:58:00.400Z,57.10
2018-03-22T07:59:00.379Z,52.00
2018-03-22T08:00:53.279Z,53.20
2018-03-22T08:01:53.224Z,54.60
2018-03-22T08:03:46.600Z,56.90
2018-03-22T08:04:46.569Z,58.70
2018-03-22T08:06:39.463Z,54.00
2018-03-22T08:07:39.420Z,54.50
2018-03-22T08:09:32.320Z,64.20
2018-03-22T08:10:32.277Z,64.70
2018-03-22T08:12:25.712Z,57.00
2018-03-22T08:13:25.633Z,58.70
2018-03-22T08:15:18.999Z,56.00
2018-03-22T08:16:18.967Z,63.90
2018-03-22T08:18:11.861Z,58.20
2018-03-22T08:19:11.822Z,60.70
2018-03-22T08:21:04.709Z,54.80
2018-03-22T08:22:04.673Z,56.50
2018-03-22T08:23:57.592Z,54.30
2018-03-22T08:24:57.549Z,53.80
2018-03-22T08:26:50.912Z,56.10
2018-03-22T08:27:50.881Z,55.50
2018-03-22T08:29:43.771Z,56.80
2018-03-22T08:30:43.738Z,59.90
2018-03-22T08:32:37.166Z,53.40
2018-03-22T08:33:37.094Z,54.10
2018-03-22T08:35:29.986Z,68.20
2018-03-22T08:36:29.954Z,57.90
2018-03-22T08:38:22.858Z,54.30
2018-03-22T08:39:22.828Z,57.50
2018-03-22T08:41:15.775Z,57.30
2018-03-22T08:42:15.693Z,58.00
2018-03-22T08:44:09.069Z,56.30
2018-03-22T08:45:09.040Z,62.70
2018-03-22T08:47:01.915Z,52.60
2018-03-22T08:48:01.898Z,55.10
2018-03-22T08:49:54.782Z,54.60
2018-03-22T08:50:54.750Z,54.70
2018-03-22T08:52:47.635Z,53.90
2018-03-22T08:53:47.621Z,52.00
2018-03-22T08:55:40.990Z,50.30
2018-03-22T08:56:40.948Z,50.70
2018-03-22T08:58:33.836Z,51.80
2018-03-22T08:59:33.803Z,50.00
2018-03-22T09:01:26.698Z,53.00
2018-03-22T09:02:26.668Z,53.00
2018-03-22T09:04:20.049Z,51.20
2018-03-22T09:05:20.031Z,56.50
2018-03-22T09:07:12.913Z,52.40
2018-03-22T09:08:12.882Z,50.10
2018-03-22T09:10:05.760Z,50.10
2018-03-22T09:11:05.732Z,52.70
2018-03-22T09:12:59.112Z,50.30
2018-03-22T09:13:59.078Z,51.20
2018-03-22T09:15:52.452Z,52.70
2018-03-22T09:16:52.424Z,51.10
2018-03-22T09:18:45.807Z,53.50
2018-03-22T09:19:45.776Z,51.10
2018-03-22T09:21:38.666Z,53.10
2018-03-22T09:22:38.633Z,54.80
2018-03-22T09:24:31.520Z,53.00
2018-03-22T09:25:31.486Z,50.30
2018-03-22T09:27:24.363Z,53.00
2018-03-22T09:28:24.355Z,50.20
2018-03-22T09:30:17.241Z,47.00
2018-03-22T09:31:17.227Z,47.40
2018-03-22T09:33:10.571Z,49.50
2018-03-22T09:34:10.545Z,47.90
2018-03-22T09:36:03.433Z,39.30
2018-03-22T09:37:03.406Z,33.00
2018-03-22T09:38:56.788Z,29.50
2018-03-22T09:39:56.754Z,29.30
2018-03-22T09:41:49.747Z,30.00
2018-03-22T09:42:49.605Z,26.40
2018-03-22T09:44:43.000Z,21.00
2018-03-22T09:45:42.963Z,21.70
2018-03-22T09:47:35.839Z,22.40
2018-03-22T09:48:35.819Z,19.00
2018-03-22T09:50:29.192Z,19.90
2018-03-22T09:51:29.163Z,19.00
2018-03-22T09:53:22.114Z,17.60
2018-03-22T09:54:22.024Z,20.10
2018-03-22T09:56:14.909Z,20.90
2018-03-22T09:57:14.887Z,19.30
2018-03-22T09:59:08.324Z,21.70
2018-03-22T10:00:08.242Z,22.50
2018-03-22T10:02:01.152Z,17.30
2018-03-22T10:03:01.132Z,17.70
2018-03-22T10:04:53.996Z,17.50
2018-03-22T10:05:53.964Z,17.50
2018-03-22T10:07:46.850Z,17.30
2018-03-22T10:08:46.830Z,17.80
2018-03-22T10:10:39.706Z,17.10
2018-03-22T10:11:39.672Z,15.00
2018-03-22T10:13:32.563Z,14.40
2018-03-22T10:14:32.541Z,16.00
2018-03-22T10:16:26.055Z,14.90
2018-03-22T10:17:25.933Z,14.20
2018-03-22T10:19:18.800Z,12.80
2018-03-22T10:20:18.770Z,14.50
2018-03-22T10:22:11.666Z,15.80
2018-03-22T10:23:11.635Z,13.90
2018-03-22T10:25:04.511Z,12.50
2018-03-22T10:26:04.534Z,10.10
2018-03-22T10:27:57.387Z,12.80
2018-03-22T10:28:57.362Z,14.10
2018-03-22T10:30:50.337Z,13.30
2018-03-22T10:31:50.305Z,13.30
2018-03-22T10:33:43.194Z,13.40
2018-03-22T10:34:43.158Z,16.00
2018-03-22T10:36:36.082Z,8.50
2018-03-22T10:37:36.020Z,10.50
2018-03-22T10:39:28.902Z,10.70
2018-03-22T10:40:28.879Z,10.60
2018-03-22T10:42:21.875Z,15.40
2018-03-22T10:43:21.846Z,13.00
2018-03-22T10:45:14.794Z,14.80
2018-03-22T10:46:14.702Z,13.20
2018-03-22T10:48:07.675Z,14.80
2018-03-22T10:49:07.565Z,9.80
2018-03-22T10:51:00.965Z,11.50
2018-03-22T10:52:00.919Z,11.00
2018-03-22T10:53:53.852Z,9.40
2018-03-22T10:54:53.783Z,8.90
2018-03-22T10:56:47.164Z,9.60
2018-03-22T10:57:47.125Z,9.30
2018-03-22T10:59:40.173Z,7.50
2018-03-22T11:00:39.985Z,8.30
2018-03-22T11:02:33.367Z,8.00
2018-03-22T11:03:33.335Z,9.00
2018-03-22T11:05:26.269Z,8.90
2018-03-22T11:06:26.199Z,9.20
2018-03-22T11:08:19.086Z,8.50
2018-03-22T11:09:19.052Z,9.50
2018-03-22T11:11:11.942Z,9.30
2018-03-22T11:12:11.909Z,8.60
2018-03-22T11:14:04.800Z,8.00
2018-03-22T11:15:04.780Z,9.40
2018-03-22T11:16:57.669Z,8.10
2018-03-22T11:17:57.664Z,9.90
2018-03-22T11:19:50.565Z,10.20
2018-03-22T11:20:50.495Z,9.90
2018-03-22T11:22:43.377Z,8.90
2018-03-22T11:23:43.349Z,9.60
2018-03-22T11:25:36.741Z,8.90
2018-03-22T11:26:36.709Z,9.20
2018-03-22T11:28:29.612Z,10.10
2018-03-22T11:29:29.563Z,12.20
2018-03-22T11:31:22.441Z,8.90
2018-03-22T11:32:22.415Z,11.50
2018-03-22T11:34:15.388Z,11.00
2018-03-22T11:35:15.278Z,8.30
2018-03-22T11:37:08.162Z,8.80
2018-03-22T11:38:08.145Z,10.10
2018-03-22T11:40:01.519Z,9.50
2018-03-22T11:41:01.488Z,9.60
2018-03-22T11:42:54.375Z,9.50
2018-03-22T11:43:54.349Z,9.20
2018-03-22T11:45:47.229Z,10.20
2018-03-22T11:46:47.204Z,9.30
2018-03-22T11:48:40.583Z,10.10
2018-03-22T11:49:40.546Z,9.20
2018-03-22T11:51:33.449Z,10.90
2018-03-22T11:52:33.419Z,11.70
2018-03-22T11:54:26.402Z,10.30
2018-03-22T11:55:26.277Z,11.10
2018-03-22T11:57:19.160Z,10.60
2018-03-22T11:58:19.132Z,10.30
2018-03-22T12:00:12.017Z,11.20
2018-03-22T12:01:11.983Z,10.20
2018-03-22T12:03:05.418Z,9.40
2018-03-22T12:04:05.343Z,11.20
2018-03-22T12:05:58.228Z,10.10
2018-03-22T12:06:58.196Z,9.60
2018-03-22T12:08:51.585Z,14.00
2018-03-22T12:09:51.561Z,8.90
2018-03-22T12:11:44.937Z,10.10
2018-03-22T12:12:44.912Z,12.90
2018-03-22T12:14:38.302Z,11.20
2018-03-22T12:15:38.260Z,10.50
2018-03-22T12:17:31.146Z,9.80
2018-03-22T12:18:31.125Z,11.40
2018-03-22T12:20:24.013Z,9.10
2018-03-22T12:21:23.987Z,9.10
2018-03-22T12:23:16.916Z,8.60
2018-03-22T12:24:16.859Z,9.10
2018-03-22T12:26:09.745Z,8.50
2018-03-22T12:27:09.714Z,9.20
2018-03-22T12:29:02.626Z,9.10
2018-03-22T12:30:02.601Z,7.90
2018-03-22T12:31:55.495Z,9.10
2018-03-22T12:32:55.472Z,10.30
2018-03-22T12:34:48.353Z,9.20
2018-03-22T12:35:48.318Z,8.90
2018-03-22T12:37:41.216Z,8.20
2018-03-22T12:38:41.197Z,9.40
2018-03-22T12:40:35.157Z,8.40
2018-03-22T12:41:34.541Z,8.80
2018-03-22T12:43:27.441Z,7.80
2018-03-22T12:44:27.400Z,8.20
2018-03-22T12:46:20.305Z,7.00
2018-03-22T12:47:20.261Z,7.70
2018-03-22T12:49:13.141Z,7.60
2018-03-22T12:50:13.154Z,7.50
2018-03-22T12:52:06.012Z,8.20
2018-03-22T12:53:05.979Z,8.60
2018-03-22T12:54:59.362Z,8.90
2018-03-22T12:55:59.344Z,8.00
2018-03-22T12:57:52.733Z,7.10
2018-03-22T12:58:52.717Z,8.40
2018-03-22T13:00:45.603Z,7.60
2018-03-22T13:01:45.562Z,7.00
2018-03-22T13:03:38.979Z,7.60
2018-03-22T13:04:38.913Z,6.70
2018-03-22T13:06:31.815Z,7.00
2018-03-22T13:07:31.784Z,7.90
2018-03-22T13:09:24.659Z,7.60
2018-03-22T13:10:24.627Z,7.50
2018-03-22T13:12:17.529Z,7.80
2018-03-22T13:13:17.491Z,7.90
2018-03-22T13:15:10.379Z,6.90
2018-03-22T13:16:10.343Z,6.40
2018-03-22T13:18:03.234Z,7.00
2018-03-22T13:19:03.206Z,8.10
2018-03-22T13:20:56.592Z,7.40
2018-03-22T13:21:56.567Z,8.30
2018-03-22T13:23:49.453Z,8.80
2018-03-22T13:24:49.432Z,8.60
2018-03-22T13:26:42.341Z,8.10
2018-03-22T13:27:42.286Z,7.40
2018-03-22T13:29:35.669Z,8.20
2018-03-22T13:30:35.639Z,7.40
2018-03-22T13:32:28.552Z,8.00
2018-03-22T13:33:29.078Z,8.40
2018-03-22T13:35:21.391Z,9.40
2018-03-22T13:36:21.368Z,8.30
2018-03-22T13:38:14.249Z,8.70
2018-03-22T13:39:14.224Z,8.50
2018-03-22T13:41:07.200Z,9.50
2018-03-22T13:42:07.091Z,9.30
2018-03-22T13:44:00.479Z,9.60
2018-03-22T13:45:00.465Z,9.60
2018-03-22T13:46:53.364Z,9.60
2018-03-22T13:47:53.314Z,10.90
2018-03-22T13:49:46.208Z,11.10
2018-03-22T13:50:46.176Z,11.00
2018-03-22T13:52:39.594Z,11.60
2018-03-22T13:53:39.527Z,12.60
2018-03-22T13:55:32.420Z,13.20
2018-03-22T13:56:32.398Z,12.90
2018-03-22T13:58:25.772Z,13.50
2018-03-22T13:59:25.748Z,12.60
2018-03-22T14:01:19.160Z,14.10
2018-03-22T14:02:19.099Z,14.10
2018-03-22T14:04:11.990Z,15.60
2018-03-22T14:05:11.956Z,16.10
2018-03-22T14:07:05.367Z,15.30
2018-03-22T14:08:05.307Z,16.00
2018-03-22T14:09:58.220Z,16.00
2018-03-22T14:10:58.176Z,15.00
2018-03-22T14:12:51.135Z,15.30
2018-03-22T14:13:51.048Z,15.50
2018-03-22T14:15:43.983Z,15.30
2018-03-22T14:16:43.912Z,16.70
2018-03-22T14:18:37.290Z,17.00
2018-03-22T14:19:37.263Z,16.50
2018-03-22T14:21:30.143Z,16.10
2018-03-22T14:22:30.119Z,15.20
2018-03-22T14:24:23.014Z,17.20
2018-03-22T14:25:22.985Z,17.20
2018-03-22T14:27:15.864Z,20.00
2018-03-22T14:28:15.839Z,18.40
2018-03-22T14:30:08.730Z,18.90
2018-03-22T14:31:08.700Z,18.90
2018-03-22T14:33:01.596Z,17.20
2018-03-22T14:34:01.565Z,18.80
2018-03-22T14:35:54.944Z,18.40
2018-03-22T14:36:54.914Z,18.40
2018-03-22T14:38:48.313Z,17.30
2018-03-22T14:39:48.264Z,16.90
2018-03-22T14:41:41.150Z,18.00
2018-03-22T14:42:41.128Z,18.00
2018-03-22T14:44:34.016Z,15.90
2018-03-22T14:45:33.986Z,16.10
2018-03-22T14:47:26.997Z,16.40
2018-03-22T14:48:26.966Z,15.90
2018-03-22T14:50:19.860Z,18.30
2018-03-22T14:51:19.830Z,17.90
2018-03-22T14:53:12.712Z,16.60
2018-03-22T14:54:12.688Z,17.50
2018-03-22T14:56:05.595Z,16.80
2018-03-22T14:57:05.559Z,16.80
2018-03-22T14:58:58.954Z,16.70
2018-03-22T14:59:58.912Z,16.30
2018-03-22T15:01:51.920Z,15.30
2018-03-22T15:02:51.777Z,18.90
2018-03-22T15:04:44.668Z,17.70
2018-03-22T15:05:44.632Z,17.90
2018-03-22T15:07:37.535Z,18.60
2018-03-22T15:08:37.505Z,19.20
2018-03-22T15:10:30.435Z,17.50
2018-03-22T15:11:30.361Z,18.10
2018-03-22T15:13:23.742Z,19.20
2018-03-22T15:14:23.718Z,20.30
2018-03-22T15:16:16.703Z,18.40
2018-03-22T15:17:16.688Z,17.60
2018-03-22T15:19:09.596Z,18.70
2018-03-22T15:20:09.542Z,16.70
2018-03-22T15:22:02.465Z,16.50
2018-03-22T15:23:02.420Z,18.80
2018-03-22T15:24:55.306Z,19.00
2018-03-22T15:25:55.291Z,21.10
2018-03-22T15:27:48.166Z,21.00
2018-03-22T15:28:48.136Z,21.20
2018-03-22T15:30:41.529Z,21.80
2018-03-22T15:31:41.491Z,20.00
2018-03-22T15:33:34.390Z,21.70
2018-03-22T15:34:34.374Z,22.50
2018-03-22T15:36:27.256Z,20.20
2018-03-22T15:37:27.338Z,21.40
2018-03-22T15:39:20.609Z,22.10
2018-03-22T15:40:20.574Z,22.90
2018-03-22T15:42:13.478Z,19.50
2018-03-22T15:43:13.446Z,19.40
2018-03-22T15:45:06.904Z,23.20
2018-03-22T15:46:06.341Z,22.00
2018-03-22T15:47:59.218Z,18.60
2018-03-22T15:48:59.203Z,21.60
2018-03-22T15:50:52.101Z,21.10
2018-03-22T15:51:52.060Z,22.60
2018-03-22T15:53:46.477Z,20.00
2018-03-22T15:54:46.429Z,19.30
2018-03-22T15:56:39.302Z,19.70
2018-03-22T15:57:39.290Z,21.20
2018-03-22T15:59:32.171Z,19.90
2018-03-22T16:00:32.167Z,20.80
2018-03-22T16:02:25.031Z,22.90
2018-03-22T16:03:25.000Z,24.40
2018-03-22T16:05:17.921Z,21.00
2018-03-22T16:06:17.896Z,19.90
2018-03-22T16:08:10.771Z,20.20
2018-03-22T16:09:10.736Z,20.80
2018-03-22T16:11:03.624Z,24.10
2018-03-22T16:12:03.642Z,23.70
2018-03-22T16:13:56.979Z,22.80
2018-03-22T16:14:56.950Z,23.80
2018-03-22T16:16:50.326Z,21.90
2018-03-22T16:17:50.300Z,21.20
2018-03-22T16:19:43.192Z,19.80
2018-03-22T16:20:43.166Z,21.20
2018-03-22T16:22:36.063Z,25.80
2018-03-22T16:23:36.028Z,23.70
2018-03-22T16:25:28.907Z,23.20
2018-03-22T16:26:28.883Z,20.60
2018-03-22T16:28:21.777Z,22.50
2018-03-22T16:29:21.745Z,24.00
2018-03-22T16:31:14.684Z,24.10
2018-03-22T16:32:14.604Z,23.80
2018-03-22T16:34:07.490Z,26.60
2018-03-22T16:35:07.510Z,23.60
2018-03-22T16:37:00.351Z,24.40
2018-03-22T16:38:00.330Z,27.80
2018-03-22T16:39:53.212Z,29.70
2018-03-22T16:40:53.184Z,31.20
2018-03-22T16:42:46.582Z,25.90
2018-03-22T16:43:46.541Z,29.50
2018-03-22T16:45:39.935Z,26.70
2018-03-22T16:46:39.905Z,32.90
2018-03-22T16:48:32.849Z,31.40
2018-03-22T16:49:32.774Z,33.50
2018-03-22T16:51:25.647Z,27.80
2018-03-22T16:52:25.620Z,29.50
2018-03-22T16:54:18.608Z,35.80
2018-03-22T16:55:18.486Z,35.40
2018-03-22T16:57:11.412Z,32.20
2018-03-22T16:58:11.356Z,33.50
2018-03-22T17:00:04.810Z,32.60
2018-03-22T17:01:04.900Z,33.10
2018-03-22T17:02:57.618Z,30.70
2018-03-22T17:03:57.567Z,29.80
2018-03-22T17:05:50.436Z,33.10
2018-03-22T17:06:50.433Z,35.40
2018-03-22T17:08:44.392Z,37.00
2018-03-22T17:09:44.370Z,39.20
2018-03-22T17:11:37.308Z,39.70
2018-03-22T17:12:37.224Z,40.50
2018-03-22T17:14:30.116Z,38.90
2018-03-22T17:15:30.120Z,39.30
2018-03-22T17:17:22.969Z,42.00
2018-03-22T17:18:22.947Z,38.80
2018-03-22T17:20:15.859Z,50.80
2018-03-22T17:21:15.786Z,49.70
2018-03-22T17:23:09.172Z,50.70
2018-03-22T17:24:09.198Z,51.70
2018-03-22T17:26:02.586Z,51.60
2018-03-22T17:27:02.522Z,51.50
2018-03-22T17:28:55.959Z,53.40
2018-03-22T17:29:55.359Z,47.90
2018-03-22T17:31:48.300Z,49.10
2018-03-22T17:32:48.234Z,49.60
2018-03-22T17:34:41.183Z,53.30
2018-03-22T17:35:41.137Z,47.80
2018-03-22T17:37:34.080Z,47.30
2018-03-22T17:38:33.993Z,49.50
2018-03-22T17:40:27.442Z,46.90
2018-03-22T17:41:27.340Z,46.40
2018-03-22T17:43:20.502Z,55.00
2018-03-22T17:44:20.216Z,53.70
2018-03-22T17:46:13.122Z,47.10
2018-03-22T17:47:13.076Z,45.50
2018-03-22T17:49:06.026Z,48.20
2018-03-22T17:50:05.936Z,46.40
2018-03-22T17:51:59.325Z,48.30
2018-03-22T17:52:59.284Z,47.70
2018-03-22T17:54:52.277Z,45.10
2018-03-22T17:55:52.245Z,48.80
2018-03-22T17:57:45.216Z,45.80
2018-03-22T17:58:45.093Z,47.10
2018-03-22T18:00:39.054Z,45.30
2018-03-22T18:01:39.020Z,46.20
2018-03-22T18:03:31.914Z,52.00
2018-03-22T18:04:31.891Z,52.20
2018-03-22T18:06:24.774Z,54.50
2018-03-22T18:07:24.738Z,52.00
2018-03-22T18:09:17.634Z,51.50
2018-03-22T18:10:17.610Z,48.80
2018-03-22T18:12:10.521Z,48.70
2018-03-22T18:13:10.460Z,50.40
2018-03-22T18:15:03.364Z,60.20
2018-03-22T18:16:03.370Z,55.60
2018-03-22T18:17:56.497Z,55.70
2018-03-22T18:18:56.206Z,55.40
2018-03-22T18:20:53.645Z,54.30
2018-03-22T18:23:03.077Z,52.80
2018-03-22T18:24:02.934Z,55.90
2018-03-22T18:25:57.119Z,52.30
2018-03-22T18:26:56.297Z,58.50
2018-03-22T18:28:49.233Z,55.10
2018-03-22T18:29:49.159Z,52.30
2018-03-22T18:31:42.200Z,62.40
2018-03-22T18:32:42.026Z,61.80
2018-03-22T18:34:35.009Z,57.10
2018-03-22T18:35:34.954Z,57.00
2018-03-22T18:37:28.384Z,55.40
2018-03-22T18:38:28.376Z,54.50